Jarnasklubb, Sweden

2:31 AM CEST on April 25, 2015 (GMT +0200)
Bjenberg Oppibyn | | Change Station
CLOSE
Current Station
Personal Weather Station
Location: Bjännberg, VäSTERBOTTENS LäN
Elevation: 100 ft
Nearby Weather Stations

Elev 100 ft 63.70 °N, 19.81 °E | Updated 30 seconds ago

Clear
Clear
25.7 °F
Feels Like 26 °F
N
0.0
Wind Variable Wind from East
Gusts 0.0 mph

Today
High -- | Low -- °F
--% Chance of Precip.
Yesterday
High -- | Low -- °F
Precip. -- in
4:40 AM 8:40 PM
Waxing Crescent, 40% visible
Pressure 29.65 in
Visibility 6.2 miles
Clouds
Windchill 26 °F
Dew Point 21 °F
Humidity 82%
Rainfall 0.00 in
Snow Depth Not available.
UV Not available.
Pollen Not available.
Air Quality Not available.
Flu Activity Not available.
METAR ESNO 250020Z AUTO VRB03KT 9999 NCD M03/M04 Q1004

More Conditions Fewer Conditions

Pressure 29.65 in
Visibility 6.2 miles
Clouds
Windchill 26 °F
Dew Point 21 °F
Humidity 82%
Rainfall 0.00 in
Snow Depth Not available.
UV Not available.
Pollen Not available.
Air Quality Not available.
Flu Activity Not available.
METAR ESNO 250020Z AUTO VRB03KT 9999 NCD M03/M04 Q1004

More Conditions Fewer Conditions

10-Day Weather Forecast

Almanac

Astronomy

Apr. 25, 2015 Rise Set
Actual Time
Civil Twilight
Nautical Twilight
Astronomical Twilight
Moon
Length of Visible Light
Length of Day
Tomorrow will be .
, % of the Moon is Illuminated

Today's Extremes

Country Highs Country Lows

Community

WunderPhotos

Upload Photos

1,816,516 photos uploaded!

WunderBlogs® & News

Nearby

Air Quality

  Air Quality AQ Index Pollutant
Not available.

Snow Depth

Station Depth Elevation

Earthquake Activity

City Distance Mag. Time & Date
Minimum magnitude displayed is 2.5.

Coastal Water Temperatures

Place Temperature

Stations

Nearby Weather Stations

Station Location Temp. Windchill Dew Point Humidity Wind Precip. Elev Updated Type